createdAt,value
2022-08-26T00:01:56.709Z,81.18
2022-08-26T00:04:26.271Z,81.19
2022-08-26T00:06:57.626Z,81.13
2022-08-26T00:09:26.967Z,81.20
2022-08-26T00:11:55.400Z,81.09
2022-08-26T00:14:31.021Z,81.10
2022-08-26T00:16:59.570Z,81.14
2022-08-26T00:19:27.638Z,81.21
2022-08-26T00:21:55.329Z,81.30
2022-08-26T00:24:23.686Z,81.40
2022-08-26T00:26:52.484Z,81.46
2022-08-26T00:29:21.384Z,81.51
2022-08-26T00:31:50.613Z,81.54
2022-08-26T00:34:19.422Z,81.54
2022-08-26T00:36:49.368Z,81.60
2022-08-26T00:39:21.030Z,81.69
2022-08-26T00:41:49.219Z,81.79
2022-08-26T00:44:18.131Z,81.91
2022-08-26T00:46:54.623Z,82.05
2022-08-26T00:49:40.731Z,82.52
2022-08-26T00:52:12.093Z,82.84
2022-08-26T00:54:47.796Z,82.58
2022-08-26T00:57:18.691Z,82.84
2022-08-26T00:59:52.449Z,82.92
2022-08-26T01:02:21.556Z,83.07
2022-08-26T01:04:55.825Z,82.96
2022-08-26T01:07:30.214Z,83.11
2022-08-26T01:10:01.099Z,83.18
2022-08-26T01:12:32.910Z,83.30
2022-08-26T01:15:01.682Z,83.39
2022-08-26T01:17:29.383Z,83.42
2022-08-26T01:20:19.349Z,83.49
2022-08-26T01:23:08.957Z,83.83
2022-08-26T01:25:43.099Z,84.10
2022-08-26T01:28:22.908Z,83.92
2022-08-26T01:30:54.076Z,84.27
2022-08-26T01:33:27.580Z,84.09
2022-08-26T01:35:56.373Z,84.44
2022-08-26T01:38:24.166Z,84.50
2022-08-26T01:40:52.474Z,84.75
2022-08-26T01:43:27.069Z,85.19
2022-08-26T01:45:57.982Z,85.89
2022-08-26T01:48:32.947Z,85.97
2022-08-26T01:51:04.474Z,86.42
2022-08-26T01:53:34.704Z,86.68
2022-08-26T01:56:03.954Z,86.75
2022-08-26T01:58:37.701Z,86.78
2022-08-26T02:01:07.123Z,86.91
2022-08-26T02:03:45.494Z,86.78
2022-08-26T02:06:15.213Z,86.92
2022-08-26T02:08:48.135Z,86.82
2022-08-26T02:11:18.557Z,87.12
2022-08-26T02:13:50.361Z,87.14
2022-08-26T02:16:22.490Z,87.31
2022-08-26T02:18:52.790Z,87.45
2022-08-26T02:21:21.437Z,87.56
2022-08-26T02:23:53.534Z,87.69
2022-08-26T02:26:26.987Z,87.95
2022-08-26T02:29:03.716Z,88.17
2022-08-26T02:31:32.336Z,88.45
2022-08-26T02:34:12.026Z,88.31
2022-08-26T02:36:40.121Z,88.62
2022-08-26T02:39:09.165Z,88.34
2022-08-26T02:41:44.900Z,88.42
2022-08-26T02:44:13.243Z,88.46
2022-08-26T02:46:41.872Z,88.56
2022-08-26T02:49:15.236Z,88.66
2022-08-26T02:51:44.599Z,88.73
2022-08-26T02:54:12.995Z,88.80
2022-08-26T02:56:41.161Z,88.90
2022-08-26T02:59:09.577Z,89.04
2022-08-26T03:01:37.633Z,89.10
2022-08-26T03:04:07.495Z,89.23
2022-08-26T03:06:35.258Z,89.30
2022-08-26T03:09:06.161Z,89.33
2022-08-26T03:11:34.544Z,89.41
2022-08-26T03:14:03.500Z,89.41
2022-08-26T03:16:39.018Z,89.46
2022-08-26T03:19:09.228Z,90.00
2022-08-26T03:21:38.646Z,89.93
2022-08-26T03:24:07.129Z,90.07
2022-08-26T03:26:34.803Z,90.27
2022-08-26T03:29:24.777Z,90.46
2022-08-26T03:31:52.624Z,90.69
2022-08-26T03:34:20.319Z,90.85
2022-08-26T03:36:50.293Z,91.03
2022-08-26T03:39:17.930Z,91.17
2022-08-26T03:41:48.539Z,91.16
2022-08-26T03:44:16.240Z,91.29
2022-08-26T03:46:45.221Z,91.31
2022-08-26T03:49:13.029Z,91.44
2022-08-26T03:51:42.873Z,91.47
2022-08-26T03:54:12.534Z,91.40
2022-08-26T03:56:40.256Z,91.34
2022-08-26T03:59:08.444Z,91.26
2022-08-26T04:01:36.964Z,91.33
2022-08-26T04:04:05.306Z,91.43
2022-08-26T04:06:37.892Z,91.55
2022-08-26T04:09:14.666Z,91.79
2022-08-26T04:11:45.299Z,92.15
2022-08-26T04:14:20.067Z,92.19
2022-08-26T04:16:49.113Z,92.21
2022-08-26T04:19:17.777Z,92.36
2022-08-26T04:21:47.121Z,92.25
2022-08-26T04:24:17.668Z,92.43
2022-08-26T04:26:46.305Z,92.57
2022-08-26T04:29:22.367Z,92.52
2022-08-26T04:31:50.106Z,92.71
2022-08-26T04:34:24.948Z,92.59
2022-08-26T04:36:57.135Z,92.56
2022-08-26T04:39:25.396Z,92.32
2022-08-26T04:41:56.073Z,92.07
2022-08-26T04:44:28.499Z,92.03
2022-08-26T04:46:57.087Z,92.12
2022-08-26T04:49:26.094Z,92.21
2022-08-26T04:51:56.079Z,92.35
2022-08-26T04:54:23.850Z,92.21
2022-08-26T04:56:53.109Z,92.36
2022-08-26T04:59:20.857Z,92.44
2022-08-26T05:01:52.360Z,92.57
2022-08-26T05:04:21.413Z,92.62
2022-08-26T05:06:50.794Z,92.71
2022-08-26T05:09:20.207Z,92.75
2022-08-26T05:11:52.227Z,92.78
2022-08-26T05:14:22.374Z,92.73
2022-08-26T05:16:50.441Z,92.79
2022-08-26T05:19:19.358Z,92.95
2022-08-26T05:21:48.901Z,92.93
2022-08-26T05:24:17.330Z,92.95
2022-08-26T05:26:45.860Z,93.13
2022-08-26T05:29:15.050Z,93.02
2022-08-26T05:31:44.561Z,93.50
2022-08-26T05:34:12.828Z,93.92
2022-08-26T05:36:41.322Z,94.33
2022-08-26T05:39:10.598Z,94.18
2022-08-26T05:41:40.598Z,94.54
2022-08-26T05:44:12.755Z,94.38
2022-08-26T05:46:44.020Z,94.24
2022-08-26T05:49:13.080Z,94.35
2022-08-26T05:51:42.797Z,93.91
2022-08-26T05:54:10.679Z,93.51
2022-08-26T05:56:39.504Z,93.16
2022-08-26T05:59:14.162Z,93.08
2022-08-26T06:01:44.248Z,92.68
2022-08-26T06:04:13.103Z,92.56
2022-08-26T06:06:43.691Z,92.33
2022-08-26T06:09:13.188Z,92.23
2022-08-26T06:11:41.370Z,92.14
2022-08-26T06:14:10.872Z,92.07
2022-08-26T06:16:41.521Z,91.99
2022-08-26T06:19:11.767Z,91.87
2022-08-26T06:21:41.581Z,91.86
2022-08-26T06:24:30.525Z,91.96
2022-08-26T06:27:02.412Z,91.88
2022-08-26T06:29:32.638Z,92.40
2022-08-26T06:32:01.635Z,92.45
2022-08-26T06:34:30.651Z,93.43
2022-08-26T06:37:02.452Z,93.32
2022-08-26T06:39:31.941Z,93.40
2022-08-26T06:42:06.267Z,93.08
2022-08-26T06:44:34.338Z,92.94
2022-08-26T06:47:02.381Z,92.70
2022-08-26T06:49:30.071Z,92.61
2022-08-26T06:52:00.817Z,92.74
2022-08-26T06:54:32.635Z,92.61
2022-08-26T06:57:01.282Z,92.83
2022-08-26T06:59:29.414Z,92.94
2022-08-26T07:01:57.177Z,92.71
2022-08-26T07:04:27.838Z,92.34
2022-08-26T07:06:56.925Z,92.64
2022-08-26T07:09:27.869Z,92.37
2022-08-26T07:11:57.293Z,92.23
2022-08-26T07:14:26.469Z,92.10
2022-08-26T07:16:54.880Z,92.04
2022-08-26T07:19:27.602Z,91.83
2022-08-26T07:22:03.974Z,91.55
2022-08-26T07:24:33.063Z,91.34
2022-08-26T07:27:02.903Z,91.19
2022-08-26T07:29:31.237Z,91.15
2022-08-26T07:31:59.516Z,91.04
2022-08-26T07:34:28.399Z,91.09
2022-08-26T07:36:58.736Z,90.81
2022-08-26T07:39:27.957Z,90.39
2022-08-26T07:41:56.245Z,90.13
2022-08-26T07:44:25.647Z,89.96
2022-08-26T07:46:53.561Z,89.71
2022-08-26T07:49:24.322Z,89.46
2022-08-26T07:51:52.624Z,89.17
2022-08-26T07:54:20.659Z,88.91
2022-08-26T07:56:55.944Z,88.48
2022-08-26T07:59:24.438Z,88.20
2022-08-26T08:01:52.420Z,88.02
2022-08-26T08:04:26.162Z,85.52
2022-08-26T08:06:54.914Z,86.29
2022-08-26T08:09:23.320Z,85.63
2022-08-26T08:11:53.007Z,84.61
2022-08-26T08:14:22.154Z,83.62
2022-08-26T08:16:51.159Z,82.96
2022-08-26T08:19:23.953Z,82.60
2022-08-26T08:22:00.814Z,82.07
2022-08-26T08:24:29.667Z,81.70
2022-08-26T08:26:57.425Z,81.03
2022-08-26T08:29:29.202Z,80.25
2022-08-26T08:32:00.882Z,80.05
2022-08-26T08:34:30.261Z,78.36
2022-08-26T08:36:58.887Z,78.61
2022-08-26T08:39:28.344Z,75.98
2022-08-26T08:42:25.671Z,76.91
2022-08-26T08:44:57.408Z,77.27
2022-08-26T08:47:25.233Z,77.74
2022-08-26T08:49:56.279Z,77.97
2022-08-26T08:52:36.614Z,77.57
2022-08-26T08:55:11.142Z,77.50
2022-08-26T08:58:08.129Z,77.52
2022-08-26T09:00:47.891Z,77.12
2022-08-26T09:03:38.485Z,76.88
2022-08-26T09:06:18.379Z,76.63
2022-08-26T09:08:50.092Z,76.36
2022-08-26T09:11:21.081Z,76.30
2022-08-26T09:13:54.948Z,76.26
2022-08-26T09:16:33.477Z,75.81
2022-08-26T09:19:15.518Z,75.15
2022-08-26T09:21:47.494Z,75.34
2022-08-26T09:24:22.243Z,75.32
2022-08-26T09:26:50.690Z,75.14
2022-08-26T09:29:32.008Z,74.76
2022-08-26T09:32:26.622Z,73.90
2022-08-26T09:35:00.225Z,72.98
2022-08-26T09:40:34.983Z,72.46
2022-08-26T09:43:23.192Z,72.41
2022-08-26T09:45:59.737Z,72.18
2022-08-26T09:48:36.825Z,71.70
2022-08-26T09:51:33.810Z,71.23
2022-08-26T09:54:05.687Z,71.13
2022-08-26T09:56:39.522Z,71.67
2022-08-26T09:59:11.716Z,71.83
2022-08-26T10:01:45.126Z,71.62
2022-08-26T10:04:24.945Z,71.81
2022-08-26T10:07:08.382Z,71.64
2022-08-26T10:09:44.187Z,70.60
2022-08-26T10:12:21.659Z,70.67
2022-08-26T10:14:56.000Z,70.43
2022-08-26T10:17:33.398Z,70.21
2022-08-26T10:20:23.331Z,70.10
2022-08-26T10:22:59.008Z,70.01
2022-08-26T10:25:34.297Z,70.07
2022-08-26T10:28:10.953Z,69.71
2022-08-26T10:30:47.962Z,69.01
2022-08-26T10:33:17.985Z,68.92
2022-08-26T10:35:58.657Z,68.77
2022-08-26T10:38:33.547Z,67.41
2022-08-26T10:41:09.779Z,67.47
2022-08-26T10:43:44.005Z,67.43
2022-08-26T10:46:18.377Z,66.33
2022-08-26T10:48:57.212Z,66.04
2022-08-26T10:51:36.687Z,65.88
2022-08-26T10:54:27.256Z,66.04
2022-08-26T10:56:55.655Z,66.47
2022-08-26T10:59:31.999Z,66.89
2022-08-26T11:02:24.171Z,66.81
2022-08-26T11:05:06.535Z,66.87
2022-08-26T11:07:44.648Z,65.85
2022-08-26T11:10:21.400Z,65.86
2022-08-26T11:13:01.628Z,65.27
2022-08-26T11:15:30.540Z,64.90
2022-08-26T11:18:05.336Z,64.53
2022-08-26T11:20:33.172Z,63.20
2022-08-26T11:23:19.899Z,63.10
2022-08-26T11:26:07.424Z,63.03
2022-08-26T11:28:49.721Z,62.32
2022-08-26T11:31:21.055Z,62.35
2022-08-26T11:33:59.873Z,61.73
2022-08-26T11:36:30.891Z,61.47
2022-08-26T11:38:59.687Z,61.77
2022-08-26T11:41:30.974Z,61.92
2022-08-26T11:44:01.313Z,61.67
2022-08-26T11:46:36.824Z,61.35
2022-08-26T11:49:08.027Z,60.85
2022-08-26T11:51:40.190Z,60.64
2022-08-26T11:54:30.486Z,60.92
2022-08-26T11:57:09.452Z,59.29
2022-08-26T11:59:41.818Z,60.52
2022-08-26T12:02:18.176Z,60.52
2022-08-26T12:04:50.115Z,60.23
2022-08-26T12:07:24.470Z,60.48
2022-08-26T12:10:05.784Z,60.15
2022-08-26T12:12:36.272Z,60.75
2022-08-26T12:15:15.158Z,60.77
2022-08-26T12:17:44.772Z,60.17
2022-08-26T12:20:49.511Z,59.97
2022-08-26T12:23:24.582Z,59.32
2022-08-26T12:26:03.391Z,59.49
2022-08-26T12:28:32.278Z,59.05
2022-08-26T12:31:02.666Z,56.42
2022-08-26T12:33:31.341Z,55.07
2022-08-26T12:36:01.783Z,55.10
2022-08-26T12:38:31.001Z,54.15
2022-08-26T12:40:59.223Z,54.22
2022-08-26T12:43:46.280Z,54.65
2022-08-26T12:46:26.742Z,53.99
2022-08-26T12:48:54.694Z,53.25
2022-08-26T12:51:26.780Z,51.75
2022-08-26T12:53:55.689Z,52.08
2022-08-26T12:56:26.426Z,52.31
2022-08-26T12:59:07.153Z,51.62
2022-08-26T13:01:44.085Z,49.78
2022-08-26T13:04:42.164Z,49.74
2022-08-26T13:07:27.817Z,46.95
2022-08-26T13:09:58.501Z,45.81
2022-08-26T13:12:33.184Z,47.17
2022-08-26T13:15:03.910Z,46.58
2022-08-26T13:17:32.606Z,47.77
2022-08-26T13:20:03.826Z,48.12
2022-08-26T13:22:32.670Z,48.16
2022-08-26T13:25:00.474Z,47.77
2022-08-26T13:27:28.682Z,48.04
2022-08-26T13:29:58.836Z,48.00
2022-08-26T13:32:27.558Z,47.90
2022-08-26T13:34:57.404Z,46.11
2022-08-26T13:37:34.678Z,45.22
2022-08-26T13:40:06.636Z,44.41
2022-08-26T13:42:34.706Z,45.92
2022-08-26T13:45:02.570Z,46.25
2022-08-26T13:47:30.455Z,45.34
2022-08-26T13:49:58.167Z,46.22
2022-08-26T13:52:30.602Z,46.69
2022-08-26T13:55:01.138Z,47.25
2022-08-26T13:57:31.484Z,47.63
2022-08-26T14:00:00.347Z,46.90
2022-08-26T14:02:28.752Z,47.95
2022-08-26T14:04:56.992Z,48.50
2022-08-26T14:07:24.840Z,48.51
2022-08-26T14:09:52.623Z,48.42
2022-08-26T14:12:20.632Z,49.25
2022-08-26T14:14:48.750Z,48.75
2022-08-26T14:17:22.419Z,48.44
2022-08-26T14:19:51.536Z,48.46
2022-08-26T14:22:22.276Z,48.37
2022-08-26T14:24:50.570Z,48.66
2022-08-26T14:27:18.437Z,48.32
2022-08-26T14:29:46.374Z,47.76
2022-08-26T14:32:22.577Z,47.46
2022-08-26T14:34:50.915Z,46.99
2022-08-26T14:37:20.089Z,46.32
2022-08-26T14:39:48.238Z,46.91
2022-08-26T14:42:21.650Z,46.04
2022-08-26T14:44:56.491Z,45.44
2022-08-26T14:47:24.235Z,45.23
2022-08-26T14:49:52.217Z,44.33
2022-08-26T14:52:20.078Z,44.78
2022-08-26T14:54:47.865Z,45.39
2022-08-26T14:57:22.514Z,44.45
2022-08-26T14:59:51.495Z,45.26
2022-08-26T15:02:32.797Z,44.14
2022-08-26T15:05:01.862Z,44.50
2022-08-26T15:07:29.676Z,43.86
2022-08-26T15:09:57.472Z,43.81
2022-08-26T15:12:25.351Z,44.00
2022-08-26T15:14:53.030Z,44.29
2022-08-26T15:17:20.792Z,44.19
2022-08-26T15:19:48.636Z,44.04
2022-08-26T15:22:16.356Z,44.34
2022-08-26T15:24:44.396Z,44.42
2022-08-26T15:27:12.099Z,43.83
2022-08-26T15:29:40.214Z,44.12
2022-08-26T15:32:07.996Z,44.35
2022-08-26T15:34:35.878Z,43.91
2022-08-26T15:37:03.713Z,43.76
2022-08-26T15:39:31.468Z,43.88
2022-08-26T15:42:00.810Z,44.18
2022-08-26T15:44:29.258Z,44.41
2022-08-26T15:46:58.790Z,44.94
2022-08-26T15:49:27.615Z,45.30
2022-08-26T15:51:56.091Z,45.74
2022-08-26T15:54:24.772Z,46.33
2022-08-26T15:56:54.106Z,45.80
2022-08-26T15:59:23.190Z,45.73
2022-08-26T16:01:51.831Z,45.87
2022-08-26T16:04:19.801Z,45.62
2022-08-26T16:06:51.175Z,45.58
2022-08-26T16:09:20.031Z,45.47
2022-08-26T16:11:47.798Z,45.21
2022-08-26T16:14:15.577Z,45.09
2022-08-26T16:16:43.300Z,45.06
2022-08-26T16:19:12.651Z,45.65
2022-08-26T16:21:42.124Z,45.87
2022-08-26T16:24:10.369Z,46.09
2022-08-26T16:26:39.735Z,45.94
2022-08-26T16:29:11.571Z,45.85
2022-08-26T16:31:40.154Z,46.12
2022-08-26T16:34:09.466Z,46.56
2022-08-26T16:36:39.022Z,46.86
2022-08-26T16:39:08.954Z,46.88
2022-08-26T16:41:37.179Z,47.23
2022-08-26T16:44:06.539Z,47.63
2022-08-26T16:46:35.064Z,48.28
2022-08-26T16:49:05.598Z,48.41
2022-08-26T16:51:37.964Z,48.83
2022-08-26T16:54:08.101Z,49.52
2022-08-26T16:56:36.270Z,49.86
2022-08-26T16:59:10.149Z,50.00
2022-08-26T17:01:37.971Z,50.83
2022-08-26T17:04:06.226Z,50.80
2022-08-26T17:06:34.035Z,50.91
2022-08-26T17:09:01.801Z,51.23
2022-08-26T17:11:29.541Z,51.67
2022-08-26T17:13:58.018Z,51.93
2022-08-26T17:16:27.016Z,51.81
2022-08-26T17:18:57.681Z,52.59
2022-08-26T17:21:26.866Z,53.73
2022-08-26T17:23:54.746Z,54.06
2022-08-26T17:26:22.658Z,55.29
2022-08-26T17:28:51.533Z,55.01
2022-08-26T17:31:20.313Z,55.80
2022-08-26T17:33:53.739Z,55.34
2022-08-26T17:36:22.795Z,55.83
2022-08-26T17:38:55.506Z,55.91
2022-08-26T17:41:23.245Z,56.48
2022-08-26T17:43:50.892Z,56.44
2022-08-26T17:46:18.607Z,57.25
2022-08-26T17:48:48.260Z,56.76
2022-08-26T17:51:20.272Z,56.49
2022-08-26T17:53:49.044Z,56.25
2022-08-26T17:56:19.386Z,56.26
2022-08-26T17:58:51.487Z,56.53
2022-08-26T18:01:21.327Z,56.98
2022-08-26T18:03:49.699Z,56.72
2022-08-26T18:06:17.668Z,56.56
2022-08-26T18:08:46.080Z,56.70
2022-08-26T18:11:18.338Z,57.27
2022-08-26T18:13:47.756Z,57.16
2022-08-26T18:16:18.257Z,56.74
2022-08-26T18:18:47.623Z,56.33
2022-08-26T18:21:24.349Z,56.10
2022-08-26T18:23:53.217Z,55.97
2022-08-26T18:26:28.191Z,58.62
2022-08-26T18:28:56.075Z,65.84
2022-08-26T18:31:24.330Z,70.46
2022-08-26T18:33:52.346Z,73.80
2022-08-26T18:36:24.099Z,81.78
2022-08-26T18:38:52.693Z,90.45
2022-08-26T18:41:22.234Z,96.88
2022-08-26T18:43:52.138Z,100.00
2022-08-26T18:46:21.203Z,100.00
2022-08-26T18:48:51.221Z,100.00
2022-08-26T18:51:25.558Z,100.00
2022-08-26T18:53:53.394Z,100.00
2022-08-26T18:56:21.480Z,100.00
2022-08-26T18:58:49.869Z,100.00
2022-08-26T19:01:20.897Z,100.00
2022-08-26T19:03:50.258Z,100.00
2022-08-26T19:06:23.526Z,100.00
2022-08-26T19:08:51.867Z,100.00
2022-08-26T19:11:32.109Z,100.00
2022-08-26T19:14:08.384Z,100.00
2022-08-26T19:16:37.674Z,100.00
2022-08-26T19:19:06.288Z,100.00
2022-08-26T19:21:35.621Z,100.00
2022-08-26T19:24:05.864Z,100.00
2022-08-26T19:26:34.197Z,100.00
2022-08-26T19:29:02.349Z,100.00
2022-08-26T19:31:30.172Z,100.00
2022-08-26T19:33:59.117Z,100.00
2022-08-26T19:36:28.567Z,100.00
2022-08-26T19:38:57.923Z,100.00
2022-08-26T19:41:36.882Z,100.00
2022-08-26T19:44:09.327Z,100.00
2022-08-26T19:49:06.515Z,100.00
2022-08-26T19:51:35.999Z,100.00
2022-08-26T19:54:03.749Z,100.00
2022-08-26T19:56:31.573Z,100.00
2022-08-26T19:58:59.405Z,100.00
2022-08-26T20:01:27.253Z,100.00
2022-08-26T20:06:23.705Z,100.00
2022-08-26T20:08:52.093Z,100.00
2022-08-26T20:11:24.993Z,100.00
2022-08-26T20:13:52.717Z,100.00
2022-08-26T20:16:20.638Z,100.00
2022-08-26T20:19:07.036Z,100.00
2022-08-26T20:21:40.867Z,100.00
2022-08-26T20:24:14.361Z,100.00
2022-08-26T20:26:44.181Z,100.00
2022-08-26T20:29:14.674Z,100.00
2022-08-26T20:31:45.131Z,100.00
2022-08-26T20:34:15.414Z,100.00
2022-08-26T20:36:44.026Z,100.00
2022-08-26T20:39:12.979Z,100.00
2022-08-26T20:41:41.035Z,100.00
2022-08-26T20:44:09.257Z,100.00
2022-08-26T20:46:37.407Z,100.00
2022-08-26T20:49:07.505Z,100.00
2022-08-26T20:51:35.727Z,100.00
2022-08-26T20:54:03.506Z,100.00
2022-08-26T20:56:31.225Z,100.00
2022-08-26T20:59:03.185Z,100.00
2022-08-26T21:01:35.657Z,100.00
2022-08-26T21:04:05.660Z,100.00
2022-08-26T21:06:34.938Z,100.00
2022-08-26T21:09:05.057Z,100.00
2022-08-26T21:11:32.792Z,100.00
2022-08-26T21:14:07.160Z,100.00
2022-08-26T21:16:44.971Z,100.00
2022-08-26T21:19:15.802Z,100.00
2022-08-26T21:21:45.534Z,100.00
2022-08-26T21:24:14.406Z,100.00
2022-08-26T21:26:42.492Z,100.00
2022-08-26T21:29:10.826Z,100.00
2022-08-26T21:31:45.051Z,100.00
2022-08-26T21:34:18.532Z,100.00
2022-08-26T21:36:49.769Z,100.00
2022-08-26T21:39:18.143Z,100.00
2022-08-26T21:41:46.387Z,100.00
2022-08-26T21:44:15.830Z,100.00
2022-08-26T21:46:45.155Z,100.00
2022-08-26T21:49:16.743Z,100.00
2022-08-26T21:51:48.855Z,100.00
2022-08-26T21:54:17.192Z,100.00
2022-08-26T21:56:47.786Z,100.00
2022-08-26T21:59:19.884Z,100.00
2022-08-26T22:01:48.117Z,100.00
2022-08-26T22:04:16.836Z,100.00
2022-08-26T22:06:48.188Z,100.00
2022-08-26T22:09:18.513Z,100.00
2022-08-26T22:11:47.429Z,100.00
2022-08-26T22:14:16.402Z,100.00
2022-08-26T22:16:50.093Z,100.00
2022-08-26T22:19:18.642Z,100.00
2022-08-26T22:21:46.450Z,100.00
2022-08-26T22:24:14.541Z,100.00
2022-08-26T22:26:42.262Z,100.00
2022-08-26T22:29:10.008Z,100.00
2022-08-26T22:31:38.763Z,100.00
2022-08-26T22:34:09.236Z,100.00
2022-08-26T22:36:43.104Z,100.00
2022-08-26T22:39:13.194Z,100.00
2022-08-26T22:41:44.035Z,100.00
2022-08-26T22:44:12.950Z,100.00
2022-08-26T22:46:42.212Z,100.00
2022-08-26T22:49:12.389Z,100.00
2022-08-26T22:51:40.256Z,100.00
2022-08-26T22:54:08.024Z,100.00
2022-08-26T22:56:36.616Z,100.00
2022-08-26T22:59:05.457Z,100.00
2022-08-26T23:01:36.650Z,100.00
2022-08-26T23:04:05.951Z,100.00
2022-08-26T23:06:39.544Z,100.00
2022-08-26T23:09:09.194Z,100.00
2022-08-26T23:11:37.307Z,100.00
2022-08-26T23:14:06.523Z,100.00
2022-08-26T23:16:39.884Z,100.00
2022-08-26T23:19:08.572Z,100.00
2022-08-26T23:21:36.475Z,100.00
2022-08-26T23:24:04.736Z,100.00
2022-08-26T23:26:32.936Z,100.00
2022-08-26T23:29:01.243Z,100.00
2022-08-26T23:31:29.006Z,100.00
2022-08-26T23:34:15.207Z,100.00
2022-08-26T23:36:44.378Z,100.00
2022-08-26T23:39:14.506Z,100.00
2022-08-26T23:41:42.738Z,100.00
2022-08-26T23:44:10.536Z,100.00
2022-08-26T23:46:38.294Z,100.00
2022-08-26T23:49:06.390Z,100.00
2022-08-26T23:51:52.850Z,100.00
2022-08-26T23:54:20.780Z,100.00
2022-08-26T23:56:48.546Z,100.00
2022-08-26T23:59:16.710Z,100.00
